createdAt,value
2022-11-24T00:01:55.696Z,14.30
2022-11-24T00:04:26.918Z,14.20
2022-11-24T00:06:56.839Z,14.20
2022-11-24T00:09:26.843Z,14.20
2022-11-24T00:11:56.663Z,14.20
2022-11-24T00:14:26.449Z,14.10
2022-11-24T00:16:56.533Z,14.20
2022-11-24T00:19:26.524Z,14.20
2022-11-24T00:21:56.498Z,14.10
2022-11-24T00:24:26.376Z,14.10
2022-11-24T00:26:56.222Z,14.10
2022-11-24T00:29:26.114Z,14.10
2022-11-24T00:31:56.018Z,14.00
2022-11-24T00:34:25.864Z,14.00
2022-11-24T00:36:55.655Z,13.90
2022-11-24T00:39:25.856Z,13.90
2022-11-24T00:41:55.660Z,13.80
2022-11-24T00:44:25.451Z,13.80
2022-11-24T00:46:55.519Z,13.80
2022-11-24T00:49:25.418Z,13.70
2022-11-24T00:51:55.388Z,13.70
2022-11-24T00:54:25.406Z,13.60
2022-11-24T00:56:55.187Z,13.60
2022-11-24T00:59:25.487Z,13.70
2022-11-24T01:01:55.662Z,13.60
2022-11-24T01:04:26.191Z,13.60
2022-11-24T01:06:59.543Z,13.60
2022-11-24T01:09:31.857Z,13.50
2022-11-24T01:12:03.199Z,13.50
2022-11-24T01:14:35.628Z,13.50
2022-11-24T01:17:06.664Z,13.50
2022-11-24T01:19:36.971Z,13.50
2022-11-24T01:22:07.605Z,13.50
2022-11-24T01:24:38.179Z,13.60
2022-11-24T01:27:09.181Z,13.60
2022-11-24T01:29:40.054Z,13.70
2022-11-24T01:32:14.106Z,13.70
2022-11-24T01:34:44.370Z,13.70
2022-11-24T01:37:17.795Z,13.80
2022-11-24T01:39:48.717Z,13.80
2022-11-24T01:42:19.502Z,13.90
2022-11-24T01:44:54.758Z,13.90
2022-11-24T01:47:41.116Z,14.00
2022-11-24T01:50:18.764Z,14.10
2022-11-24T01:52:56.171Z,14.20
2022-11-24T01:55:31.726Z,14.10
2022-11-24T01:58:08.732Z,14.30
2022-11-24T02:00:40.719Z,14.40
2022-11-24T02:03:10.936Z,14.50
2022-11-24T02:05:52.648Z,14.60
2022-11-24T02:08:32.324Z,14.70
2022-11-24T02:11:06.514Z,14.80
2022-11-24T02:13:40.015Z,14.90
2022-11-24T02:16:12.836Z,15.00
2022-11-24T02:18:44.280Z,15.20
2022-11-24T02:21:17.181Z,15.30
2022-11-24T02:24:16.255Z,15.30
2022-11-24T02:26:49.745Z,15.40
2022-11-24T02:29:19.890Z,15.50
2022-11-24T02:31:54.716Z,15.60
2022-11-24T02:34:24.619Z,15.50
2022-11-24T02:36:54.387Z,15.60
2022-11-24T02:39:24.310Z,15.60
2022-11-24T02:42:03.056Z,15.60
2022-11-24T02:44:37.644Z,15.50
2022-11-24T02:47:10.182Z,15.50
2022-11-24T02:49:40.420Z,15.50
2022-11-24T02:52:10.727Z,15.60
2022-11-24T02:54:40.566Z,15.60
2022-11-24T02:57:10.776Z,15.70
2022-11-24T02:59:40.767Z,15.70
2022-11-24T03:02:12.127Z,15.60
2022-11-24T03:04:42.068Z,15.70
2022-11-24T03:07:11.970Z,15.70
2022-11-24T03:09:41.853Z,15.70
2022-11-24T03:12:11.664Z,15.70
2022-11-24T03:14:41.528Z,15.70
2022-11-24T03:17:12.220Z,15.80
2022-11-24T03:19:42.101Z,15.90
2022-11-24T03:22:11.967Z,16.10
2022-11-24T03:24:41.899Z,16.20
2022-11-24T03:27:11.842Z,16.30
2022-11-24T03:29:42.067Z,16.40
2022-11-24T03:32:11.865Z,16.50
2022-11-24T03:34:42.232Z,16.50
2022-11-24T03:37:12.461Z,16.60
2022-11-24T03:39:42.301Z,16.60
2022-11-24T03:42:13.087Z,16.70
2022-11-24T03:44:42.970Z,16.80
2022-11-24T03:47:14.515Z,16.90
2022-11-24T03:49:44.397Z,17.00
2022-11-24T03:52:14.384Z,17.10
2022-11-24T03:54:44.827Z,17.20
2022-11-24T03:57:14.125Z,17.20
2022-11-24T03:59:44.032Z,17.20
2022-11-24T04:02:14.159Z,17.20
2022-11-24T04:04:49.572Z,17.20
2022-11-24T04:07:20.812Z,17.30
2022-11-24T04:09:50.610Z,17.50
2022-11-24T04:12:37.256Z,17.70
2022-11-24T04:15:07.544Z,17.70
2022-11-24T04:17:37.547Z,17.80
2022-11-24T04:20:08.455Z,17.90
2022-11-24T04:22:39.281Z,17.90
2022-11-24T04:25:10.454Z,17.90
2022-11-24T04:27:42.725Z,18.10
2022-11-24T04:30:13.122Z,18.20
2022-11-24T04:32:42.534Z,18.40
2022-11-24T04:35:12.671Z,18.40
2022-11-24T04:37:43.613Z,18.40
2022-11-24T04:40:14.949Z,18.40
2022-11-24T04:42:45.212Z,18.50
2022-11-24T04:45:15.252Z,18.60
2022-11-24T04:47:45.330Z,18.80
2022-11-24T04:50:15.686Z,18.80
2022-11-24T04:52:45.242Z,19.00
2022-11-24T04:55:15.312Z,19.10
2022-11-24T04:57:45.304Z,19.10
2022-11-24T05:00:15.926Z,19.10
2022-11-24T05:02:45.985Z,19.10
2022-11-24T05:05:16.001Z,19.10
2022-11-24T05:07:45.903Z,19.10
2022-11-24T05:10:31.072Z,19.10
2022-11-24T05:13:01.435Z,19.10
2022-11-24T05:15:31.882Z,19.20
2022-11-24T05:18:01.957Z,19.30
2022-11-24T05:20:31.838Z,19.40
2022-11-24T05:23:09.978Z,19.50
2022-11-24T05:25:44.857Z,19.60
2022-11-24T05:28:17.344Z,19.60
2022-11-24T05:30:48.147Z,19.60
2022-11-24T05:33:24.765Z,19.60
2022-11-24T05:35:54.739Z,19.60
2022-11-24T05:38:25.416Z,19.60
2022-11-24T05:40:55.630Z,19.60
2022-11-24T05:43:24.862Z,19.50
2022-11-24T05:45:54.682Z,19.60
2022-11-24T05:48:25.527Z,19.70
2022-11-24T05:50:58.609Z,19.80
2022-11-24T05:53:28.815Z,19.90
2022-11-24T05:55:58.462Z,20.00
2022-11-24T05:58:30.265Z,20.00
2022-11-24T06:01:00.619Z,20.10
2022-11-24T06:03:31.248Z,20.10
2022-11-24T06:06:01.101Z,20.10
2022-11-24T06:08:31.453Z,20.10
2022-11-24T06:11:14.974Z,20.20
2022-11-24T06:13:46.059Z,20.00
2022-11-24T06:16:16.684Z,20.10
2022-11-24T06:18:46.750Z,20.10
2022-11-24T06:21:16.646Z,20.10
2022-11-24T06:23:49.541Z,20.20
2022-11-24T06:26:20.319Z,20.30
2022-11-24T06:28:50.310Z,20.30
2022-11-24T06:31:20.325Z,20.30
2022-11-24T06:33:50.233Z,20.40
2022-11-24T06:36:20.292Z,20.50
2022-11-24T06:38:50.196Z,20.50
2022-11-24T06:41:21.406Z,20.50
2022-11-24T06:43:51.192Z,20.50
2022-11-24T06:46:21.251Z,20.50
2022-11-24T06:48:54.526Z,20.50
2022-11-24T06:51:24.883Z,20.50
2022-11-24T06:53:55.264Z,20.50
2022-11-24T06:56:25.636Z,20.50
2022-11-24T06:58:56.770Z,20.60
2022-11-24T07:01:29.550Z,20.60
2022-11-24T07:04:00.326Z,20.70
2022-11-24T07:06:31.460Z,20.80
2022-11-24T07:09:01.345Z,20.80
2022-11-24T07:11:32.539Z,20.80
2022-11-24T07:14:02.409Z,20.90
2022-11-24T07:16:33.021Z,20.90
2022-11-24T07:19:03.737Z,20.90
2022-11-24T07:21:34.750Z,20.90
2022-11-24T07:24:05.102Z,20.80
2022-11-24T07:26:38.874Z,21.00
2022-11-24T07:29:08.804Z,21.10
2022-11-24T07:31:38.712Z,21.10
2022-11-24T07:34:09.445Z,21.20
2022-11-24T07:36:40.056Z,21.10
2022-11-24T07:39:10.570Z,21.10
2022-11-24T07:41:43.313Z,21.20
2022-11-24T07:44:13.146Z,21.20
2022-11-24T07:46:42.970Z,21.30
2022-11-24T07:49:12.983Z,21.30
2022-11-24T07:51:43.175Z,21.20
2022-11-24T07:54:12.457Z,21.20
2022-11-24T07:56:42.486Z,21.20
2022-11-24T07:59:13.388Z,21.20
2022-11-24T08:01:43.264Z,21.20
2022-11-24T08:04:13.301Z,21.20
2022-11-24T08:06:47.208Z,21.20
2022-11-24T08:09:17.519Z,21.20
2022-11-24T08:11:48.552Z,21.20
2022-11-24T08:14:18.528Z,21.20
2022-11-24T08:16:48.457Z,21.20
2022-11-24T08:19:18.365Z,21.10
2022-11-24T08:21:48.162Z,21.10
2022-11-24T08:24:18.676Z,21.20
2022-11-24T08:26:48.726Z,21.20
2022-11-24T08:29:19.095Z,21.20
2022-11-24T08:31:52.851Z,21.20
2022-11-24T08:34:26.862Z,21.10
2022-11-24T08:36:56.865Z,21.00
2022-11-24T08:39:26.909Z,21.00
2022-11-24T08:41:56.792Z,20.90
2022-11-24T08:44:26.935Z,20.90
2022-11-24T08:46:57.985Z,20.90
2022-11-24T08:49:27.939Z,20.90
2022-11-24T08:51:59.983Z,21.10
2022-11-24T08:54:29.863Z,21.10
2022-11-24T08:57:00.073Z,21.10
2022-11-24T08:59:29.525Z,21.10
2022-11-24T09:01:59.633Z,21.20
2022-11-24T09:04:29.716Z,21.20
2022-11-24T09:07:00.819Z,21.20
2022-11-24T09:09:30.912Z,21.20
2022-11-24T09:12:00.286Z,21.20
2022-11-24T09:14:31.382Z,21.20
2022-11-24T09:17:04.547Z,21.20
2022-11-24T09:19:36.300Z,21.20
2022-11-24T09:22:06.850Z,21.20
2022-11-24T09:24:37.055Z,21.10
2022-11-24T09:27:06.327Z,21.10
2022-11-24T09:29:37.343Z,21.10
2022-11-24T09:32:07.337Z,21.10
2022-11-24T09:34:41.451Z,21.10
2022-11-24T09:37:14.271Z,21.00
2022-11-24T09:39:54.123Z,21.00
2022-11-24T09:42:59.784Z,20.90
2022-11-24T09:46:05.529Z,20.80
2022-11-24T09:48:43.134Z,20.80
2022-11-24T09:51:15.827Z,20.80
2022-11-24T09:53:59.644Z,20.90
2022-11-24T09:56:33.570Z,20.90
2022-11-24T09:59:12.830Z,20.90
2022-11-24T10:01:46.142Z,20.90
2022-11-24T10:04:44.968Z,20.90
2022-11-24T10:07:53.777Z,20.90
2022-11-24T10:11:02.503Z,20.80
2022-11-24T10:14:11.199Z,20.70
2022-11-24T10:17:01.079Z,20.60
2022-11-24T10:20:02.046Z,20.50
2022-11-24T10:22:51.802Z,20.50
2022-11-24T10:25:35.621Z,20.40
2022-11-24T10:28:10.729Z,20.40
2022-11-24T10:30:40.842Z,20.30
2022-11-24T10:33:31.812Z,20.30
2022-11-24T10:36:11.398Z,20.20
2022-11-24T10:39:01.721Z,20.10
2022-11-24T10:41:42.915Z,20.00
2022-11-24T10:44:17.135Z,19.90
2022-11-24T10:46:47.431Z,19.90
2022-11-24T10:49:22.812Z,19.80
2022-11-24T10:52:23.737Z,19.70
2022-11-24T10:54:59.338Z,19.60
2022-11-24T10:57:48.888Z,19.50
2022-11-24T11:00:38.446Z,19.50
2022-11-24T11:03:29.773Z,19.40
2022-11-24T11:06:16.353Z,19.40
2022-11-24T11:08:46.411Z,19.30
2022-11-24T11:11:36.577Z,19.20
2022-11-24T11:14:08.798Z,19.10
2022-11-24T11:16:59.626Z,19.10
2022-11-24T11:19:50.206Z,19.00
2022-11-24T11:22:39.201Z,19.00
2022-11-24T11:25:46.665Z,18.90
2022-11-24T11:28:44.242Z,18.90
2022-11-24T11:31:24.550Z,18.80
2022-11-24T11:34:30.747Z,18.80
2022-11-24T11:37:02.479Z,18.70
2022-11-24T11:39:37.662Z,18.60
2022-11-24T11:43:00.816Z,18.50
2022-11-24T11:45:31.592Z,18.40
2022-11-24T11:48:40.599Z,18.40
2022-11-24T11:54:55.819Z,18.20
2022-11-24T11:57:57.619Z,18.20
2022-11-24T12:00:27.836Z,18.20
2022-11-24T12:03:22.604Z,18.20
2022-11-24T12:06:14.373Z,18.10
2022-11-24T12:09:20.354Z,18.10
2022-11-24T12:12:16.007Z,18.10
2022-11-24T12:15:10.574Z,18.00
2022-11-24T12:17:51.646Z,17.90
2022-11-24T12:20:31.741Z,17.90
2022-11-24T12:23:19.026Z,17.90
2022-11-24T12:26:14.316Z,17.80
2022-11-24T12:29:24.965Z,17.80
2022-11-24T12:32:23.434Z,17.80
2022-11-24T12:35:10.703Z,17.80
2022-11-24T12:37:56.927Z,17.80
2022-11-24T12:40:50.683Z,17.80
2022-11-24T12:43:35.588Z,17.80
2022-11-24T12:46:19.787Z,17.80
2022-11-24T12:49:20.595Z,17.80
2022-11-24T12:51:58.218Z,17.70
2022-11-24T12:54:32.765Z,17.70
2022-11-24T12:57:16.665Z,17.70
2022-11-24T13:00:09.052Z,17.60
2022-11-24T13:03:03.010Z,17.60
2022-11-24T13:05:48.225Z,17.60
2022-11-24T13:08:20.433Z,17.60
2022-11-24T13:10:58.216Z,17.50
2022-11-24T13:13:51.911Z,17.50
2022-11-24T13:16:53.623Z,17.50
2022-11-24T13:19:21.909Z,17.50
2022-11-24T13:22:12.607Z,17.40
2022-11-24T13:24:44.343Z,17.40
2022-11-24T13:27:29.288Z,17.30
2022-11-24T13:29:59.266Z,17.30
2022-11-24T13:32:48.857Z,17.30
2022-11-24T13:35:21.046Z,17.30
2022-11-24T13:37:53.295Z,17.20
2022-11-24T13:40:45.940Z,17.20
2022-11-24T13:43:25.384Z,17.20
2022-11-24T13:45:55.838Z,17.20
2022-11-24T13:48:44.519Z,17.20
2022-11-24T13:51:25.492Z,17.10
2022-11-24T13:53:59.490Z,17.30
2022-11-24T13:56:31.900Z,17.20
2022-11-24T13:59:17.712Z,17.10
2022-11-24T14:01:58.349Z,17.10
2022-11-24T14:04:31.768Z,17.10
2022-11-24T14:07:09.405Z,17.10
2022-11-24T14:09:47.390Z,17.00
2022-11-24T14:12:26.657Z,17.00
2022-11-24T14:15:15.451Z,16.90
2022-11-24T14:17:45.732Z,16.90
2022-11-24T14:20:28.179Z,16.80
2022-11-24T14:22:58.211Z,16.80
2022-11-24T14:25:35.641Z,16.80
2022-11-24T14:28:15.924Z,16.80
2022-11-24T14:30:45.876Z,16.80
2022-11-24T14:33:17.571Z,16.70
2022-11-24T14:35:51.050Z,16.70
2022-11-24T14:38:21.069Z,16.70
2022-11-24T14:40:55.528Z,16.60
2022-11-24T14:43:34.517Z,16.60
2022-11-24T14:46:07.983Z,16.60
2022-11-24T14:48:48.902Z,16.50
2022-11-24T14:51:28.921Z,16.50
2022-11-24T14:54:04.188Z,16.40
2022-11-24T14:56:38.255Z,16.40
2022-11-24T14:59:24.853Z,16.40
2022-11-24T15:01:55.897Z,16.30
2022-11-24T15:04:54.807Z,16.30
2022-11-24T15:07:31.812Z,16.30
2022-11-24T15:10:04.009Z,16.30
2022-11-24T15:12:44.133Z,16.30
2022-11-24T15:15:25.848Z,16.30
2022-11-24T15:18:04.864Z,16.30
2022-11-24T15:20:47.855Z,16.20
2022-11-24T15:23:33.338Z,16.20
2022-11-24T15:26:30.737Z,16.20
2022-11-24T15:29:02.325Z,16.20
2022-11-24T15:31:33.321Z,16.20
2022-11-24T15:34:03.193Z,16.10
2022-11-24T15:36:33.325Z,16.10
2022-11-24T15:39:03.152Z,16.00
2022-11-24T15:41:35.082Z,16.00
2022-11-24T15:44:05.343Z,16.00
2022-11-24T15:46:39.486Z,16.00
2022-11-24T15:49:09.983Z,15.90
2022-11-24T15:51:44.867Z,15.90
2022-11-24T15:54:18.742Z,15.90
2022-11-24T15:56:49.471Z,15.90
2022-11-24T15:59:21.201Z,15.90
2022-11-24T16:01:52.568Z,15.80
2022-11-24T16:04:23.172Z,15.80
2022-11-24T16:06:52.423Z,15.80
2022-11-24T16:09:22.489Z,15.70
2022-11-24T16:11:52.325Z,15.70
2022-11-24T16:14:22.712Z,15.70
2022-11-24T16:16:53.594Z,15.70
2022-11-24T16:19:27.520Z,15.60
2022-11-24T16:21:57.542Z,15.60
2022-11-24T16:24:27.318Z,15.60
2022-11-24T16:26:57.274Z,15.60
2022-11-24T16:29:27.282Z,15.50
2022-11-24T16:31:57.304Z,15.60
2022-11-24T16:34:31.077Z,15.60
2022-11-24T16:37:01.274Z,15.60
2022-11-24T16:39:31.164Z,15.60
2022-11-24T16:42:00.985Z,15.50
2022-11-24T16:44:30.823Z,15.50
2022-11-24T16:47:00.829Z,15.50
2022-11-24T16:49:33.912Z,15.50
2022-11-24T16:52:06.255Z,15.50
2022-11-24T16:54:38.733Z,15.50
2022-11-24T16:57:14.609Z,15.50
2022-11-24T16:59:47.953Z,15.40
2022-11-24T17:02:19.550Z,15.40
2022-11-24T17:04:51.449Z,15.30
2022-11-24T17:07:23.744Z,15.30
2022-11-24T17:09:56.767Z,15.30
2022-11-24T17:12:27.325Z,15.30
2022-11-24T17:15:24.574Z,15.30
2022-11-24T17:18:08.720Z,15.30
2022-11-24T17:20:39.008Z,15.20
2022-11-24T17:23:08.975Z,15.20
2022-11-24T17:25:38.778Z,15.10
2022-11-24T17:28:08.609Z,15.10
2022-11-24T17:30:39.999Z,15.00
2022-11-24T17:33:09.880Z,15.00
2022-11-24T17:35:39.949Z,15.00
2022-11-24T17:38:09.907Z,14.90
2022-11-24T17:40:52.641Z,14.90
2022-11-24T17:43:22.670Z,14.90
2022-11-24T17:46:02.595Z,14.90
2022-11-24T17:48:34.069Z,14.90
2022-11-24T17:51:09.484Z,14.90
2022-11-24T17:53:41.689Z,14.90
2022-11-24T17:56:15.715Z,14.90
2022-11-24T17:58:45.749Z,14.90
2022-11-24T18:01:18.843Z,15.00
2022-11-24T18:03:53.194Z,14.90
2022-11-24T18:06:26.784Z,14.90
2022-11-24T18:08:58.369Z,14.80
2022-11-24T18:11:32.052Z,14.80
2022-11-24T18:14:06.703Z,14.70
2022-11-24T18:16:37.396Z,14.60
2022-11-24T18:19:11.895Z,14.70
2022-11-24T18:21:43.205Z,14.60
2022-11-24T18:24:17.392Z,14.60
2022-11-24T18:26:49.477Z,14.50
2022-11-24T18:29:22.138Z,14.50
2022-11-24T18:31:52.093Z,14.50
2022-11-24T18:34:22.017Z,14.50
2022-11-24T18:36:54.268Z,14.40
2022-11-24T18:39:24.212Z,14.40
2022-11-24T18:41:54.038Z,14.30
2022-11-24T18:44:24.625Z,14.30
2022-11-24T18:47:01.007Z,14.30
2022-11-24T18:49:32.825Z,14.30
2022-11-24T18:52:05.913Z,14.20
2022-11-24T18:54:38.254Z,14.20
2022-11-24T18:57:08.117Z,14.20
2022-11-24T18:59:39.092Z,14.20
2022-11-24T19:02:09.262Z,14.20
2022-11-24T19:04:39.223Z,14.10
2022-11-24T19:07:09.084Z,14.10
2022-11-24T19:09:39.580Z,14.10
2022-11-24T19:12:10.466Z,14.10
2022-11-24T19:14:40.511Z,14.10
2022-11-24T19:17:10.379Z,14.10
2022-11-24T19:19:41.496Z,14.00
2022-11-24T19:22:12.025Z,14.00
2022-11-24T19:24:42.787Z,13.90
2022-11-24T19:27:12.656Z,13.90
2022-11-24T19:29:43.272Z,13.80
2022-11-24T19:32:13.359Z,13.90
2022-11-24T19:34:43.256Z,13.90
2022-11-24T19:37:13.147Z,13.80
2022-11-24T19:39:43.055Z,13.90
2022-11-24T19:42:12.976Z,13.80
2022-11-24T19:44:42.893Z,13.90
2022-11-24T19:47:19.943Z,13.90
2022-11-24T19:49:55.425Z,13.80
2022-11-24T19:52:25.284Z,13.80
2022-11-24T19:54:55.058Z,13.80
2022-11-24T19:57:25.088Z,13.80
2022-11-24T19:59:55.142Z,13.80
2022-11-24T20:02:25.107Z,13.80
2022-11-24T20:04:54.912Z,13.80
2022-11-24T20:07:24.878Z,13.80
2022-11-24T20:09:54.789Z,13.70
2022-11-24T20:12:24.548Z,13.70
2022-11-24T20:14:54.436Z,13.70
2022-11-24T20:17:24.295Z,13.60
2022-11-24T20:19:54.144Z,13.60
2022-11-24T20:22:24.246Z,13.60
2022-11-24T20:24:54.096Z,13.60
2022-11-24T20:27:23.934Z,13.60
2022-11-24T20:29:53.780Z,13.50
2022-11-24T20:32:23.636Z,13.50
2022-11-24T20:34:54.143Z,13.50
2022-11-24T20:37:24.999Z,13.50
2022-11-24T20:39:54.860Z,13.40
2022-11-24T20:42:24.665Z,13.50
2022-11-24T20:44:54.606Z,13.40
2022-11-24T20:47:24.366Z,13.40
2022-11-24T20:49:54.215Z,13.40
2022-11-24T20:52:24.041Z,13.40
2022-11-24T20:54:53.818Z,13.40
2022-11-24T20:57:23.545Z,13.40
2022-11-24T20:59:54.067Z,13.40
2022-11-24T21:02:23.997Z,13.40
2022-11-24T21:04:54.545Z,13.30
2022-11-24T21:07:24.336Z,13.30
2022-11-24T21:09:54.203Z,13.30
2022-11-24T21:12:25.064Z,13.30
2022-11-24T21:14:54.947Z,13.30
2022-11-24T21:17:24.799Z,13.30
2022-11-24T21:19:59.598Z,13.30
2022-11-24T21:22:30.758Z,13.30
2022-11-24T21:25:00.714Z,13.20
2022-11-24T21:27:30.507Z,13.30
2022-11-24T21:30:00.453Z,13.20
2022-11-24T21:32:32.061Z,13.20
2022-11-24T21:35:01.866Z,13.20
2022-11-24T21:37:31.684Z,13.20
2022-11-24T21:40:01.537Z,13.10
2022-11-24T21:42:31.414Z,13.10
2022-11-24T21:45:03.705Z,13.10
2022-11-24T21:47:33.486Z,13.20
2022-11-24T21:50:03.265Z,13.10
2022-11-24T21:52:34.004Z,13.10
2022-11-24T21:55:03.809Z,13.10
2022-11-24T21:57:33.678Z,13.10
2022-11-24T22:00:03.669Z,13.10
2022-11-24T22:02:33.568Z,13.10
2022-11-24T22:05:03.583Z,13.10
2022-11-24T22:07:34.885Z,13.10
2022-11-24T22:10:04.765Z,13.00
2022-11-24T22:12:34.563Z,13.00
2022-11-24T22:15:04.609Z,13.00
2022-11-24T22:17:34.635Z,13.00
2022-11-24T22:20:04.433Z,13.00
2022-11-24T22:22:34.291Z,13.00
2022-11-24T22:25:04.574Z,13.00
2022-11-24T22:27:34.684Z,13.00
2022-11-24T22:30:07.566Z,12.90
2022-11-24T22:32:37.324Z,12.90
2022-11-24T22:35:07.651Z,12.90
2022-11-24T22:37:38.492Z,12.90
2022-11-24T22:40:09.051Z,12.80
2022-11-24T22:42:38.904Z,12.80
2022-11-24T22:45:09.415Z,12.80
2022-11-24T22:47:39.365Z,12.80
2022-11-24T22:50:10.108Z,12.80
2022-11-24T22:52:42.105Z,12.80
2022-11-24T22:55:12.033Z,12.80
2022-11-24T22:57:46.017Z,12.80
2022-11-24T23:00:21.230Z,12.80
2022-11-24T23:02:51.098Z,12.80
2022-11-24T23:05:21.096Z,12.80
2022-11-24T23:07:50.994Z,12.80
2022-11-24T23:10:21.113Z,12.80
2022-11-24T23:12:51.531Z,12.90
2022-11-24T23:15:21.465Z,12.90
2022-11-24T23:17:51.183Z,12.70
2022-11-24T23:20:21.065Z,12.80
2022-11-24T23:22:51.051Z,12.80
2022-11-24T23:25:20.789Z,12.70
2022-11-24T23:27:50.599Z,12.70
2022-11-24T23:30:20.753Z,12.60
2022-11-24T23:32:50.491Z,12.60
2022-11-24T23:35:20.315Z,12.70
2022-11-24T23:38:07.049Z,12.70
2022-11-24T23:40:37.476Z,12.60
2022-11-24T23:43:07.345Z,12.60
2022-11-24T23:45:37.329Z,12.60
2022-11-24T23:48:10.119Z,12.60
2022-11-24T23:50:39.922Z,12.70
2022-11-24T23:53:10.410Z,12.60
2022-11-24T23:55:40.677Z,12.60
2022-11-24T23:58:10.711Z,12.60
